createdAt,value
2023-01-19T00:01:52.769Z,4.05
2023-01-19T00:06:56.882Z,4.40
2023-01-19T00:12:01.176Z,4.43
2023-01-19T00:17:04.832Z,5.25
2023-01-19T00:22:08.080Z,4.57
2023-01-19T00:27:12.281Z,4.40
2023-01-19T00:32:18.296Z,4.47
2023-01-19T00:37:22.167Z,4.57
2023-01-19T00:42:40.905Z,4.30
2023-01-19T00:47:44.578Z,2.80
2023-01-19T00:52:48.216Z,3.05
2023-01-19T00:57:51.220Z,7.25
2023-01-19T01:02:54.806Z,3.72
2023-01-19T01:07:57.713Z,5.95
2023-01-19T01:13:00.365Z,5.45
2023-01-19T01:18:23.838Z,4.35
2023-01-19T01:23:26.516Z,3.95
2023-01-19T01:28:29.025Z,4.97
2023-01-19T01:33:39.884Z,2.53
2023-01-19T01:38:45.433Z,2.95
2023-01-19T01:43:58.602Z,1.90
2023-01-19T01:49:10.968Z,2.20
2023-01-19T01:54:24.417Z,1.48
2023-01-19T01:59:39.974Z,1.23
2023-01-19T02:05:04.275Z,2.35
2023-01-19T02:10:26.147Z,1.48
2023-01-19T02:15:28.835Z,5.82
2023-01-19T02:20:33.898Z,1.98
2023-01-19T02:25:36.987Z,2.35
2023-01-19T02:30:41.760Z,2.30
2023-01-19T02:35:46.199Z,2.83
2023-01-19T02:40:49.788Z,1.85
2023-01-19T02:45:52.727Z,1.60
2023-01-19T02:51:04.671Z,2.65
2023-01-19T02:56:07.347Z,1.00
2023-01-19T03:01:48.659Z,2.35
2023-01-19T03:07:01.214Z,1.35
2023-01-19T03:12:34.453Z,2.40
2023-01-19T03:17:38.585Z,2.60
2023-01-19T03:22:42.429Z,5.70
2023-01-19T03:27:46.787Z,2.15
2023-01-19T03:33:00.079Z,1.10
2023-01-19T03:38:08.739Z,1.73
2023-01-19T03:43:12.399Z,1.77
2023-01-19T03:48:15.224Z,3.92
2023-01-19T03:53:20.237Z,1.20
2023-01-19T04:03:25.243Z,1.08
2023-01-19T04:08:28.019Z,2.38
2023-01-19T04:13:30.835Z,0.68
2023-01-19T04:18:36.282Z,1.88
2023-01-19T04:23:39.832Z,0.95
2023-01-19T04:28:43.481Z,0.60
2023-01-19T04:33:49.882Z,0.82
2023-01-19T04:38:53.002Z,1.55
2023-01-19T04:44:15.800Z,2.63
2023-01-19T04:49:18.382Z,0.35
2023-01-19T04:54:21.595Z,1.27
2023-01-19T04:59:24.286Z,1.13
2023-01-19T05:04:26.896Z,0.95
2023-01-19T05:09:29.463Z,1.42
2023-01-19T05:14:32.209Z,3.40
2023-01-19T05:19:35.526Z,3.08
2023-01-19T05:24:39.152Z,3.00
2023-01-19T05:29:42.089Z,2.57
2023-01-19T05:34:45.244Z,3.30
2023-01-19T05:39:48.842Z,4.20
2023-01-19T05:44:51.554Z,2.45
2023-01-19T05:49:54.494Z,2.28
2023-01-19T05:54:57.041Z,1.80
2023-01-19T06:00:00.677Z,2.85
2023-01-19T06:05:04.630Z,2.22
2023-01-19T06:10:08.630Z,2.70
2023-01-19T06:15:11.958Z,2.25
2023-01-19T06:20:15.467Z,2.45
2023-01-19T06:25:18.821Z,2.50
2023-01-19T06:30:23.246Z,4.07
2023-01-19T06:35:25.832Z,1.85
2023-01-19T06:40:28.382Z,2.50
2023-01-19T06:45:31.014Z,3.47
2023-01-19T06:50:33.699Z,2.58
2023-01-19T06:55:36.516Z,1.95
2023-01-19T07:00:39.531Z,3.15
2023-01-19T07:05:42.233Z,3.38
2023-01-19T07:11:25.618Z,4.80
2023-01-19T07:16:13.004Z,2.35
2023-01-19T07:21:18.092Z,3.17
2023-01-19T07:26:21.856Z,2.85
2023-01-19T07:31:25.157Z,2.93
2023-01-19T07:36:27.793Z,5.45
2023-01-19T07:41:30.289Z,4.00
2023-01-19T07:47:11.281Z,5.20
2023-01-19T07:52:14.058Z,6.13
2023-01-19T07:57:17.205Z,7.47
2023-01-19T08:02:19.853Z,9.93
2023-01-19T08:07:22.615Z,9.15
2023-01-19T08:12:25.193Z,7.72
2023-01-19T08:17:27.937Z,8.35
2023-01-19T08:22:30.526Z,7.90
2023-01-19T08:27:33.041Z,7.28
2023-01-19T08:32:36.012Z,7.70
2023-01-19T08:37:38.464Z,8.32
2023-01-19T08:42:40.986Z,7.43
2023-01-19T08:47:43.551Z,13.70
2023-01-19T08:52:46.135Z,10.90
2023-01-19T08:57:53.348Z,9.52
2023-01-19T09:02:56.640Z,8.38
2023-01-19T09:07:59.372Z,7.60
2023-01-19T09:13:08.356Z,9.10
2023-01-19T09:18:18.773Z,8.55
2023-01-19T09:23:22.764Z,10.48
2023-01-19T09:28:25.674Z,9.73
2023-01-19T09:33:29.435Z,6.30
2023-01-19T09:38:32.981Z,10.98
2023-01-19T09:43:41.037Z,19.05
2023-01-19T09:48:54.291Z,9.35
2023-01-19T09:54:17.857Z,9.80
2023-01-19T09:59:26.226Z,9.82
2023-01-19T10:04:42.527Z,8.38
2023-01-19T10:10:03.056Z,9.57
2023-01-19T10:15:42.856Z,11.88
2023-01-19T10:20:56.694Z,7.95
2023-01-19T10:26:05.747Z,8.27
2023-01-19T10:31:09.844Z,9.90
2023-01-19T10:36:24.508Z,10.20
2023-01-19T10:41:40.954Z,8.23
2023-01-19T10:46:45.986Z,7.85
2023-01-19T10:57:03.877Z,7.78
2023-01-19T11:02:30.034Z,6.65
2023-01-19T11:07:34.688Z,10.85
2023-01-19T11:12:45.747Z,7.95
2023-01-19T11:17:49.211Z,8.93
2023-01-19T11:23:21.915Z,12.23
2023-01-19T11:28:32.948Z,7.97
2023-01-19T11:33:57.484Z,6.07
2023-01-19T11:39:28.817Z,8.00
2023-01-19T11:45:28.497Z,8.35
2023-01-19T11:51:39.407Z,5.75
2023-01-19T11:58:29.254Z,5.35
2023-01-19T12:04:30.857Z,7.53
2023-01-19T12:17:36.794Z,10.85
2023-01-19T12:22:50.970Z,9.70
2023-01-19T12:27:54.614Z,11.98
2023-01-19T12:33:29.179Z,12.35
2023-01-19T12:38:57.840Z,8.18
2023-01-19T12:44:16.633Z,18.55
2023-01-19T12:49:29.708Z,9.68
2023-01-19T12:54:33.592Z,7.15
2023-01-19T13:11:34.103Z,9.52
2023-01-19T13:16:37.126Z,7.20
2023-01-19T13:21:57.018Z,9.43
2023-01-19T13:27:03.536Z,8.60
2023-01-19T13:32:35.911Z,4.68
2023-01-19T13:38:28.506Z,5.60
2023-01-19T13:43:37.515Z,6.50
2023-01-19T13:48:40.370Z,10.30
2023-01-19T13:54:32.639Z,10.00
2023-01-19T13:59:35.312Z,8.80
2023-01-19T14:04:38.122Z,13.32
2023-01-19T14:09:41.265Z,7.38
2023-01-19T14:14:46.973Z,18.63
2023-01-19T14:20:30.479Z,10.90
2023-01-19T14:26:43.444Z,9.48
2023-01-19T14:32:07.048Z,7.50
2023-01-19T14:37:31.452Z,5.57
2023-01-19T14:42:43.062Z,30.02
2023-01-19T14:47:53.493Z,12.18
2023-01-19T14:53:04.084Z,8.80
2023-01-19T14:58:17.165Z,20.30
2023-01-19T15:03:19.808Z,10.70
2023-01-19T15:08:34.317Z,11.23
2023-01-19T15:13:37.319Z,16.47
2023-01-19T15:18:40.758Z,16.27
2023-01-19T15:23:43.517Z,11.40
2023-01-19T15:28:47.195Z,10.57
2023-01-19T15:33:54.637Z,9.00
2023-01-19T15:38:57.730Z,7.63
2023-01-19T15:44:01.428Z,7.65
2023-01-19T15:49:07.035Z,14.50
2023-01-19T15:54:23.186Z,9.85
2023-01-19T15:59:33.620Z,6.60
2023-01-19T16:04:36.202Z,9.63
2023-01-19T16:09:38.816Z,7.63
2023-01-19T16:14:41.396Z,14.52
2023-01-19T16:19:43.946Z,6.40
2023-01-19T16:24:46.502Z,7.28
2023-01-19T16:29:52.349Z,10.50
2023-01-19T16:34:55.555Z,11.68
2023-01-19T16:40:00.746Z,9.10
2023-01-19T16:50:08.620Z,7.90
2023-01-19T16:55:12.001Z,11.60
2023-01-19T17:00:15.927Z,12.18
2023-01-19T17:05:24.471Z,15.97
2023-01-19T17:10:32.472Z,12.88
2023-01-19T17:15:35.276Z,10.45
2023-01-19T17:20:38.173Z,8.63
2023-01-19T17:25:40.805Z,15.02
2023-01-19T17:30:43.466Z,14.82
2023-01-19T17:35:47.047Z,8.65
2023-01-19T17:40:52.730Z,14.07
2023-01-19T17:46:06.144Z,11.50
2023-01-19T17:51:12.048Z,7.55
2023-01-19T17:56:25.966Z,7.65
2023-01-19T18:01:33.372Z,11.02
2023-01-19T18:06:36.536Z,10.50
2023-01-19T18:11:39.178Z,8.23
2023-01-19T18:16:41.730Z,17.27
2023-01-19T18:21:44.324Z,26.05
2023-01-19T18:26:46.945Z,31.00
2023-01-19T18:31:49.681Z,27.10
2023-01-19T18:36:53.692Z,18.17
2023-01-19T18:41:56.868Z,12.68
2023-01-19T18:46:59.800Z,16.60
2023-01-19T18:52:03.991Z,7.15
2023-01-19T18:57:06.561Z,10.60
2023-01-19T19:02:11.948Z,10.23
2023-01-19T19:07:17.720Z,9.38
2023-01-19T19:12:22.643Z,16.17
2023-01-19T19:17:25.396Z,10.43
2023-01-19T19:22:28.316Z,9.85
2023-01-19T19:27:30.989Z,7.88
2023-01-19T19:32:33.628Z,10.23
2023-01-19T19:37:36.285Z,7.82
2023-01-19T19:42:39.410Z,11.82
2023-01-19T19:47:43.903Z,9.13
2023-01-19T19:52:46.726Z,8.13
2023-01-19T19:57:49.313Z,13.13
2023-01-19T20:02:51.988Z,6.88
2023-01-19T20:07:54.703Z,7.82
2023-01-19T20:12:57.421Z,10.40
2023-01-19T20:18:00.074Z,5.60
2023-01-19T20:23:02.794Z,12.50
2023-01-19T20:28:05.690Z,8.30
2023-01-19T20:33:08.303Z,3.85
2023-01-19T20:38:11.106Z,2.83
2023-01-19T20:43:13.964Z,3.97
2023-01-19T20:48:16.988Z,6.75
2023-01-19T20:53:19.818Z,5.90
2023-01-19T20:58:24.621Z,7.50
2023-01-19T21:03:29.644Z,7.68
2023-01-19T21:08:33.143Z,10.30
2023-01-19T21:13:36.555Z,8.23
2023-01-19T21:18:39.273Z,9.93
2023-01-19T21:23:42.187Z,8.70
2023-01-19T21:28:47.264Z,24.75
2023-01-19T21:39:00.637Z,19.85
2023-01-19T21:44:04.519Z,19.15
2023-01-19T21:49:12.711Z,7.60
2023-01-19T21:54:15.355Z,11.35
2023-01-19T21:59:20.213Z,7.47
2023-01-19T22:09:25.739Z,5.57
2023-01-19T22:14:30.033Z,7.78
2023-01-19T22:19:33.242Z,13.00
2023-01-19T22:24:35.894Z,7.45
2023-01-19T22:29:38.539Z,6.97
2023-01-19T22:34:43.197Z,6.70
2023-01-19T22:39:48.121Z,6.90
2023-01-19T22:44:51.105Z,3.10
2023-01-19T22:49:56.931Z,3.90
2023-01-19T22:55:00.184Z,5.25
2023-01-19T23:00:08.716Z,5.15
2023-01-19T23:05:11.441Z,2.75
2023-01-19T23:10:14.277Z,11.73
2023-01-19T23:15:16.976Z,4.15
2023-01-19T23:20:21.103Z,5.40
2023-01-19T23:25:23.808Z,4.97
2023-01-19T23:30:29.240Z,4.50
2023-01-19T23:35:34.648Z,3.33
2023-01-19T23:40:38.467Z,3.67
2023-01-19T23:45:41.428Z,5.10
2023-01-19T23:51:05.640Z,4.50
2023-01-19T23:56:22.960Z,12.35
